Kyokuhoumaru No.12 — JL5963 — position and weather

sailwx.info

Track history (hours):
 
Tides and Currents Weather Stations Pressure Air Temp Water Temp Dewpoint Dewpoint Depression Visibility Wind Speed Wind Dir Waves Ship Positions

Kyokuhoumaru No.12

Last reported at 2018-Apr-20 19:18 UTC. Time now 2018-Apr-22 10:48 UTC.
Position N 35°36' E 139°54'.

Length 57 m.

Type: Tanker. MMSI: 431500879.

Date/timePositionNaut miles runAvg speedWind from/ knotsBaromVisibWave heightAir tempDewpointWater temp
2018-Apr-20 19:18N 35°36' E 139°54'7 1.3
2018-Apr-20 14:14N 35°29' E 139°52'2 9.9
2018-Apr-20 14:00N 35°28' E 139°51'510.0
2018-Apr-20 13:30N 35°24' E 139°46'5 9.5
2018-Apr-20 13:00N 35°20' E 139°44'5 8.9
2018-Apr-20 12:30N 35°16' E 139°47'5 9.6
2018-Apr-20 12:00N 35°11' E 139°46'5 9.7
2018-Apr-20 11:30N 35°06' E 139°44'5 9.7
2018-Apr-20 11:00N 35°03' E 139°40'6610.0
2018-Apr-20 04:28N 34°35' E 138°27'175 8.2
2018-Apr-19 07:18N 33°55' E 135°02'3 9.9
2018-Apr-19 07:00N 33°58' E 135°02'5 9.9
2018-Apr-19 06:29N 34°03' E 135°02'710.2
2018-Apr-19 05:49N 34°10' E 135°03'410.4
2018-Apr-19 05:29N 34°14' E 135°03'611.6
2018-Apr-19 05:00N 34°19' E 135°04'510.5
2018-Apr-19 04:30N 34°23' E 135°08'510.6
2018-Apr-19 04:00N 34°27' E 135°12'5 9.8
2018-Apr-19 03:30N 34°30' E 135°17'5 9.9
2018-Apr-19 03:00N 34°33' E 135°22'2 4.1
2018-Apr-19 02:29N 34°33' E 135°25'0 0.0
2018-Apr-19 01:59N 34°33' E 135°25'0 0.0
2018-Apr-19 01:29N 34°33' E 135°25'0 0.0
2018-Apr-19 00:59N 34°33' E 135°25'1 1.3
2018-Apr-19 00:30N 34°33' E 135°25'3 7.0
2018-Apr-19 00:00N 34°32' E 135°21'0 0.6
2018-Apr-18 23:30N 34°32' E 135°21'0 0.0
2018-Apr-18 23:00N 34°32' E 135°21'0 0.0
2018-Apr-18 22:30N 34°32' E 135°21'0 0.0
2018-Apr-18 22:00N 34°32' E 135°21'0 0.0
2018-Apr-18 21:30N 34°32' E 135°21'0 0.0
2018-Apr-18 21:00N 34°32' E 135°21'0 0.1
2018-Apr-18 20:30N 34°32' E 135°21'0 0.1
2018-Apr-18 20:00N 34°32' E 135°21'0 0.0
2018-Apr-18 19:30N 34°32' E 135°21'0 0.0
2018-Apr-18 19:00N 34°32' E 135°21'0 0.0
2018-Apr-18 18:30N 34°32' E 135°21'0 0.0
2018-Apr-18 18:00N 34°32' E 135°21'0 0.0
2018-Apr-18 17:30N 34°32' E 135°21'0 0.0
2018-Apr-18 17:00N 34°32' E 135°21'0 0.0
2018-Apr-18 16:30N 34°32' E 135°21'0 0.1
2018-Apr-18 15:57N 34°32' E 135°21'0 0.0
2018-Apr-18 15:30N 34°32' E 135°21'0 0.0
2018-Apr-18 15:00N 34°32' E 135°21'0 0.0
2018-Apr-18 14:30N 34°32' E 135°21'0 0.0
2018-Apr-18 14:00N 34°32' E 135°21'0 0.0
2018-Apr-18 13:30N 34°32' E 135°21'0 0.1
2018-Apr-18 13:00N 34°32' E 135°21'0 0.0
2018-Apr-18 12:30N 34°32' E 135°21'0 0.0
2018-Apr-18 12:00N 34°32' E 135°21'0 0.0
2018-Apr-18 11:27N 34°32' E 135°21'0 0.1
2018-Apr-18 11:00N 34°32' E 135°21'0 0.1
2018-Apr-18 10:30N 34°32' E 135°21'0 0.1
2018-Apr-18 09:57N 34°32' E 135°21'0 0.0
2018-Apr-18 09:30N 34°32' E 135°21'0 0.1
2018-Apr-18 09:00N 34°32' E 135°21'0 0.1
2018-Apr-18 08:30N 34°32' E 135°21'0 0.0
2018-Apr-18 08:00N 34°32' E 135°21'0 0.1
2018-Apr-18 07:30N 34°32' E 135°21'0 0.0
2018-Apr-18 07:00N 34°32' E 135°21'0 0.0
2018-Apr-18 06:30N 34°32' E 135°21'0 0.0
2018-Apr-18 06:00N 34°32' E 135°21'0 0.0
2018-Apr-18 05:30N 34°32' E 135°21'0 0.0
2018-Apr-18 05:00N 34°32' E 135°21'0 0.0
2018-Apr-18 04:30N 34°32' E 135°21'0 0.0
2018-Apr-18 04:00N 34°32' E 135°21'0 0.1
2018-Apr-18 03:30N 34°32' E 135°21'0 0.0
2018-Apr-18 03:00N 34°32' E 135°21'0 0.1
2018-Apr-18 02:30N 34°32' E 135°21'0 0.0
2018-Apr-18 02:00N 34°32' E 135°21'0 0.0
2018-Apr-18 01:30N 34°32' E 135°21'0 0.0
2018-Apr-18 01:00N 34°32' E 135°21'0 0.0
2018-Apr-18 00:30N 34°32' E 135°21'0 0.0
2018-Apr-17 23:57N 34°32' E 135°21'0 0.0
2018-Apr-17 23:30N 34°32' E 135°21'0 0.1
2018-Apr-17 23:00N 34°32' E 135°21'0 0.1
2018-Apr-17 22:30N 34°32' E 135°21'0 0.0
2018-Apr-17 22:00N 34°32' E 135°21'0 0.0
2018-Apr-17 21:30N 34°32' E 135°21'0 0.0
2018-Apr-17 21:00N 34°32' E 135°21'0 0.0
2018-Apr-17 20:30N 34°32' E 135°21'0 0.0
2018-Apr-17 20:00N 34°32' E 135°21'0 0.0
2018-Apr-17 19:30N 34°32' E 135°21'0 0.1
2018-Apr-17 19:00N 34°32' E 135°21'0 0.0
2018-Apr-17 18:27N 34°32' E 135°21'0 0.0
2018-Apr-17 18:00N 34°32' E 135°21'0 0.0
2018-Apr-17 17:30N 34°32' E 135°21'0 0.0
2018-Apr-17 16:57N 34°32' E 135°21'0 0.1
2018-Apr-17 16:30N 34°32' E 135°21'0 0.0
2018-Apr-17 16:00N 34°32' E 135°21'0 0.1
2018-Apr-17 15:30N 34°32' E 135°21'5 9.2
2018-Apr-17 15:00N 34°33' E 135°16'4 8.8
2018-Apr-17 14:30N 34°34' E 135°10'5 9.5
2018-Apr-17 14:00N 34°35' E 135°05'4 7.6
2018-Apr-17 13:30N 34°37' E 135°01'5 9.1
2018-Apr-17 13:00N 34°35' E 134°56'4 7.3
2018-Apr-17 12:30N 34°33' E 134°52'4 7.7
2018-Apr-17 11:59N 34°32' E 134°47'4 8.4
2018-Apr-17 11:28N 34°31' E 134°42'4 9.3
2018-Apr-17 11:00N 34°29' E 134°37'  
Track history (hours):
 
Tides and Currents Weather Stations Pressure Air Temp Water Temp Dewpoint Dewpoint Depression Visibility Wind Speed Wind Dir Waves Ship Positions

Kyokuhoumaru No.12

Last reported at 2018-Apr-20 19:18 UTC. Time now 2018-Apr-22 10:48 UTC.
Position N 35°36' E 139°54'.

Length 57 m.

Type: Tanker. MMSI: 431500879.

Date/timePositionNaut miles runAvg speedWind from/ knotsBaromVisibWave heightAir tempDewpointWater temp
2018-Apr-20 19:18N 35°36' E 139°54'7 1.3
2018-Apr-20 14:14N 35°29' E 139°52'2 9.9
2018-Apr-20 14:00N 35°28' E 139°51'510.0
2018-Apr-20 13:30N 35°24' E 139°46'5 9.5
2018-Apr-20 13:00N 35°20' E 139°44'5 8.9
2018-Apr-20 12:30N 35°16' E 139°47'5 9.6
2018-Apr-20 12:00N 35°11' E 139°46'5 9.7
2018-Apr-20 11:30N 35°06' E 139°44'5 9.7
2018-Apr-20 11:00N 35°03' E 139°40'6610.0
2018-Apr-20 04:28N 34°35' E 138°27'175 8.2
2018-Apr-19 07:18N 33°55' E 135°02'3 9.9
2018-Apr-19 07:00N 33°58' E 135°02'5 9.9
2018-Apr-19 06:29N 34°03' E 135°02'710.2
2018-Apr-19 05:49N 34°10' E 135°03'410.4
2018-Apr-19 05:29N 34°14' E 135°03'611.6
2018-Apr-19 05:00N 34°19' E 135°04'510.5
2018-Apr-19 04:30N 34°23' E 135°08'510.6
2018-Apr-19 04:00N 34°27' E 135°12'5 9.8
2018-Apr-19 03:30N 34°30' E 135°17'5 9.9
2018-Apr-19 03:00N 34°33' E 135°22'2 4.1
2018-Apr-19 02:29N 34°33' E 135°25'0 0.0
2018-Apr-19 01:59N 34°33' E 135°25'0 0.0
2018-Apr-19 01:29N 34°33' E 135°25'0 0.0
2018-Apr-19 00:59N 34°33' E 135°25'1 1.3
2018-Apr-19 00:30N 34°33' E 135°25'3 7.0
2018-Apr-19 00:00N 34°32' E 135°21'0 0.6
2018-Apr-18 23:30N 34°32' E 135°21'0 0.0
2018-Apr-18 23:00N 34°32' E 135°21'0 0.0
2018-Apr-18 22:30N 34°32' E 135°21'0 0.0
2018-Apr-18 22:00N 34°32' E 135°21'0 0.0
2018-Apr-18 21:30N 34°32' E 135°21'0 0.0
2018-Apr-18 21:00N 34°32' E 135°21'0 0.1
2018-Apr-18 20:30N 34°32' E 135°21'0 0.1
2018-Apr-18 20:00N 34°32' E 135°21'0 0.0
2018-Apr-18 19:30N 34°32' E 135°21'0 0.0
2018-Apr-18 19:00N 34°32' E 135°21'0 0.0
2018-Apr-18 18:30N 34°32' E 135°21'0 0.0
2018-Apr-18 18:00N 34°32' E 135°21'0 0.0
2018-Apr-18 17:30N 34°32' E 135°21'0 0.0
2018-Apr-18 17:00N 34°32' E 135°21'0 0.0
2018-Apr-18 16:30N 34°32' E 135°21'0 0.1
2018-Apr-18 15:57N 34°32' E 135°21'0 0.0
2018-Apr-18 15:30N 34°32' E 135°21'0 0.0
2018-Apr-18 15:00N 34°32' E 135°21'0 0.0
2018-Apr-18 14:30N 34°32' E 135°21'0 0.0
2018-Apr-18 14:00N 34°32' E 135°21'0 0.0
2018-Apr-18 13:30N 34°32' E 135°21'0 0.1
2018-Apr-18 13:00N 34°32' E 135°21'0 0.0
2018-Apr-18 12:30N 34°32' E 135°21'0 0.0
2018-Apr-18 12:00N 34°32' E 135°21'0 0.0
2018-Apr-18 11:27N 34°32' E 135°21'0 0.1
2018-Apr-18 11:00N 34°32' E 135°21'0 0.1
2018-Apr-18 10:30N 34°32' E 135°21'0 0.1
2018-Apr-18 09:57N 34°32' E 135°21'0 0.0
2018-Apr-18 09:30N 34°32' E 135°21'0 0.1
2018-Apr-18 09:00N 34°32' E 135°21'0 0.1
2018-Apr-18 08:30N 34°32' E 135°21'0 0.0
2018-Apr-18 08:00N 34°32' E 135°21'0 0.1
2018-Apr-18 07:30N 34°32' E 135°21'0 0.0
2018-Apr-18 07:00N 34°32' E 135°21'0 0.0
2018-Apr-18 06:30N 34°32' E 135°21'0 0.0
2018-Apr-18 06:00N 34°32' E 135°21'0 0.0
2018-Apr-18 05:30N 34°32' E 135°21'0 0.0
2018-Apr-18 05:00N 34°32' E 135°21'0 0.0
2018-Apr-18 04:30N 34°32' E 135°21'0 0.0
2018-Apr-18 04:00N 34°32' E 135°21'0 0.1
2018-Apr-18 03:30N 34°32' E 135°21'0 0.0
2018-Apr-18 03:00N 34°32' E 135°21'0 0.1
2018-Apr-18 02:30N 34°32' E 135°21'0 0.0
2018-Apr-18 02:00N 34°32' E 135°21'0 0.0
2018-Apr-18 01:30N 34°32' E 135°21'0 0.0
2018-Apr-18 01:00N 34°32' E 135°21'0 0.0
2018-Apr-18 00:30N 34°32' E 135°21'0 0.0
2018-Apr-17 23:57N 34°32' E 135°21'0 0.0
2018-Apr-17 23:30N 34°32' E 135°21'0 0.1
2018-Apr-17 23:00N 34°32' E 135°21'0 0.1
2018-Apr-17 22:30N 34°32' E 135°21'0 0.0
2018-Apr-17 22:00N 34°32' E 135°21'0 0.0
2018-Apr-17 21:30N 34°32' E 135°21'0 0.0
2018-Apr-17 21:00N 34°32' E 135°21'0 0.0
2018-Apr-17 20:30N 34°32' E 135°21'0 0.0
2018-Apr-17 20:00N 34°32' E 135°21'0 0.0
2018-Apr-17 19:30N 34°32' E 135°21'0 0.1
2018-Apr-17 19:00N 34°32' E 135°21'0 0.0
2018-Apr-17 18:27N 34°32' E 135°21'0 0.0
2018-Apr-17 18:00N 34°32' E 135°21'0 0.0
2018-Apr-17 17:30N 34°32' E 135°21'0 0.0
2018-Apr-17 16:57N 34°32' E 135°21'0 0.1
2018-Apr-17 16:30N 34°32' E 135°21'0 0.0
2018-Apr-17 16:00N 34°32' E 135°21'0 0.1
2018-Apr-17 15:30N 34°32' E 135°21'5 9.2
2018-Apr-17 15:00N 34°33' E 135°16'4 8.8
2018-Apr-17 14:30N 34°34' E 135°10'5 9.5
2018-Apr-17 14:00N 34°35' E 135°05'4 7.6
2018-Apr-17 13:30N 34°37' E 135°01'5 9.1
2018-Apr-17 13:00N 34°35' E 134°56'4 7.3
2018-Apr-17 12:30N 34°33' E 134°52'4 7.7
2018-Apr-17 11:59N 34°32' E 134°47'4 8.4
2018-Apr-17 11:28N 34°31' E 134°42'4 9.3
2018-Apr-17 11:00N 34°29' E 134°37'  

Dump ship's entire track history